createdAt,value
2022-09-28T00:02:26.569Z,3.73
2022-09-28T00:04:54.603Z,2.90
2022-09-28T00:07:22.539Z,3.03
2022-09-28T00:09:50.520Z,2.93
2022-09-28T00:12:18.466Z,3.47
2022-09-28T00:14:46.535Z,3.63
2022-09-28T00:17:16.828Z,2.77
2022-09-28T00:19:46.103Z,3.80
2022-09-28T00:22:14.025Z,3.40
2022-09-28T00:24:41.953Z,4.00
2022-09-28T00:27:09.859Z,4.00
2022-09-28T00:29:38.491Z,3.40
2022-09-28T00:32:07.229Z,5.00
2022-09-28T00:34:36.670Z,3.63
2022-09-28T00:37:06.513Z,3.30
2022-09-28T00:39:35.950Z,4.00
2022-09-28T00:42:04.022Z,3.30
2022-09-28T00:44:40.087Z,4.83
2022-09-28T00:47:25.683Z,4.73
2022-09-28T00:49:55.486Z,4.20
2022-09-28T00:52:27.164Z,3.93
2022-09-28T00:54:55.428Z,4.13
2022-09-28T00:57:23.332Z,3.90
2022-09-28T00:59:51.501Z,4.07
2022-09-28T01:02:19.787Z,4.00
2022-09-28T01:04:47.772Z,3.47
2022-09-28T01:07:15.739Z,4.07
2022-09-28T01:09:45.914Z,3.30
2022-09-28T01:12:13.871Z,2.77
2022-09-28T01:14:41.829Z,3.60
2022-09-28T01:17:15.604Z,2.70
2022-09-28T01:20:14.151Z,2.47
2022-09-28T01:23:17.305Z,2.57
2022-09-28T01:25:52.421Z,2.60
2022-09-28T01:28:22.320Z,2.53
2022-09-28T01:30:54.855Z,3.17
2022-09-28T01:33:24.890Z,2.20
2022-09-28T01:35:54.060Z,2.03
2022-09-28T01:38:23.175Z,3.60
2022-09-28T01:40:51.183Z,1.90
2022-09-28T01:43:21.171Z,2.33
2022-09-28T01:45:52.044Z,1.80
2022-09-28T01:48:22.667Z,1.83
2022-09-28T01:50:51.925Z,1.37
2022-09-28T01:53:21.768Z,2.00
2022-09-28T01:55:51.123Z,1.80
2022-09-28T01:58:20.227Z,1.93
2022-09-28T02:00:49.242Z,2.40
2022-09-28T02:03:19.643Z,1.80
2022-09-28T02:05:49.718Z,2.13
2022-09-28T02:08:20.058Z,2.80
2022-09-28T02:10:49.726Z,2.27
2022-09-28T02:13:18.364Z,2.03
2022-09-28T02:15:49.877Z,2.93
2022-09-28T02:18:19.688Z,2.00
2022-09-28T02:20:57.337Z,2.73
2022-09-28T02:23:25.241Z,2.10
2022-09-28T02:25:54.345Z,1.93
2022-09-28T02:28:22.289Z,2.07
2022-09-28T02:30:50.226Z,2.40
2022-09-28T02:33:21.174Z,2.20
2022-09-28T02:35:49.104Z,2.10
2022-09-28T02:38:17.037Z,2.37
2022-09-28T02:40:47.363Z,1.70
2022-09-28T02:43:17.081Z,1.90
2022-09-28T02:45:58.346Z,1.87
2022-09-28T02:48:44.114Z,1.67
2022-09-28T02:51:20.062Z,1.90
2022-09-28T02:53:59.284Z,1.90
2022-09-28T02:56:35.240Z,1.63
2022-09-28T02:59:08.111Z,2.23
2022-09-28T03:01:38.287Z,1.53
2022-09-28T03:04:11.470Z,1.77
2022-09-28T03:06:41.345Z,1.67
2022-09-28T03:09:13.012Z,1.53
2022-09-28T03:11:43.823Z,2.10
2022-09-28T03:14:11.774Z,1.97
2022-09-28T03:16:43.089Z,2.30
2022-09-28T03:19:12.406Z,1.60
2022-09-28T03:21:40.419Z,2.83
2022-09-28T03:24:11.196Z,2.40
2022-09-28T03:26:39.321Z,3.10
2022-09-28T03:29:07.269Z,2.80
2022-09-28T03:31:35.372Z,2.60
2022-09-28T03:34:03.402Z,2.57
2022-09-28T03:36:32.708Z,2.07
2022-09-28T03:39:00.761Z,1.83
2022-09-28T03:41:28.897Z,7.97
2022-09-28T03:43:56.840Z,9.00
2022-09-28T03:46:24.762Z,9.63
2022-09-28T03:48:52.688Z,8.20
2022-09-28T03:51:20.596Z,8.10
2022-09-28T03:53:49.903Z,7.97
2022-09-28T03:56:17.912Z,6.40
2022-09-28T03:58:45.846Z,5.60
2022-09-28T04:01:17.524Z,5.80
2022-09-28T04:03:46.054Z,5.40
2022-09-28T04:06:13.977Z,5.77
2022-09-28T04:08:43.115Z,6.20
2022-09-28T04:11:12.467Z,4.07
2022-09-28T04:13:40.471Z,5.53
2022-09-28T04:16:08.571Z,4.57
2022-09-28T04:18:36.551Z,5.10
2022-09-28T04:21:06.867Z,3.90
2022-09-28T04:23:35.059Z,5.37
2022-09-28T04:26:03.225Z,5.60
2022-09-28T04:28:50.174Z,4.43
2022-09-28T04:31:19.218Z,4.30
2022-09-28T04:33:47.224Z,4.10
2022-09-28T04:36:15.183Z,3.70
2022-09-28T04:38:58.317Z,3.03
2022-09-28T04:41:26.579Z,5.27
2022-09-28T04:43:55.873Z,4.53
2022-09-28T04:46:23.781Z,4.07
2022-09-28T04:48:51.713Z,5.37
2022-09-28T04:51:19.656Z,5.47
2022-09-28T04:53:47.598Z,5.17
2022-09-28T04:56:16.449Z,5.10
2022-09-28T04:58:46.921Z,4.63
2022-09-28T05:01:20.512Z,4.80
2022-09-28T05:03:48.476Z,4.40
2022-09-28T05:06:16.496Z,6.30
2022-09-28T05:08:46.811Z,5.20
2022-09-28T05:11:15.067Z,5.63
2022-09-28T05:13:43.798Z,5.00
2022-09-28T05:16:11.768Z,5.00
2022-09-28T05:18:41.071Z,3.77
2022-09-28T05:21:11.212Z,4.10
2022-09-28T05:23:39.136Z,3.87
2022-09-28T05:26:07.419Z,3.53
2022-09-28T05:28:35.398Z,3.50
2022-09-28T05:31:03.667Z,2.80
2022-09-28T05:33:32.132Z,4.23
2022-09-28T05:36:01.962Z,3.27
2022-09-28T05:38:30.225Z,4.07
2022-09-28T05:40:58.193Z,4.07
2022-09-28T05:43:26.269Z,4.70
2022-09-28T05:45:55.839Z,4.77
2022-09-28T05:48:24.016Z,3.90
2022-09-28T05:50:52.389Z,4.23
2022-09-28T05:53:21.776Z,3.20
2022-09-28T05:55:49.680Z,4.00
2022-09-28T05:58:17.703Z,2.47
2022-09-28T06:00:45.651Z,2.43
2022-09-28T06:03:14.338Z,2.53
2022-09-28T06:05:42.299Z,2.27
2022-09-28T06:08:11.664Z,2.33
2022-09-28T06:10:41.004Z,2.20
2022-09-28T06:13:08.954Z,2.00
2022-09-28T06:15:37.010Z,1.83
2022-09-28T06:18:06.160Z,1.97
2022-09-28T06:20:35.631Z,2.00
2022-09-28T06:23:03.577Z,1.40
2022-09-28T06:25:31.484Z,1.50
2022-09-28T06:28:01.437Z,1.43
2022-09-28T06:30:30.443Z,3.33
2022-09-28T06:32:59.169Z,2.10
2022-09-28T06:35:28.445Z,1.40
2022-09-28T06:37:56.344Z,1.67
2022-09-28T06:40:24.896Z,2.17
2022-09-28T06:42:56.452Z,2.70
2022-09-28T06:45:25.951Z,1.23
2022-09-28T06:47:55.864Z,0.90
2022-09-28T06:50:24.167Z,1.30
2022-09-28T06:52:53.521Z,1.00
2022-09-28T06:55:21.617Z,1.07
2022-09-28T06:57:49.668Z,1.80
2022-09-28T07:00:17.753Z,1.50
2022-09-28T07:02:47.123Z,1.73
2022-09-28T07:05:15.202Z,1.70
2022-09-28T07:07:44.820Z,1.33
2022-09-28T07:10:12.916Z,1.00
2022-09-28T07:12:41.164Z,1.93
2022-09-28T07:15:10.172Z,1.00
2022-09-28T07:17:52.404Z,1.33
2022-09-28T07:20:26.971Z,1.67
2022-09-28T07:22:55.559Z,1.20
2022-09-28T07:25:23.974Z,1.20
2022-09-28T07:27:51.881Z,1.30
2022-09-28T07:30:20.322Z,1.13
2022-09-28T07:32:48.435Z,1.17
2022-09-28T07:35:16.567Z,1.27
2022-09-28T07:37:45.920Z,1.10
2022-09-28T07:40:31.262Z,1.30
2022-09-28T07:43:05.254Z,1.00
2022-09-28T07:45:34.175Z,1.00
2022-09-28T07:48:02.752Z,1.30
2022-09-28T07:50:30.726Z,1.20
2022-09-28T07:53:00.551Z,1.10
2022-09-28T07:55:28.479Z,0.97
2022-09-28T07:57:59.589Z,0.80
2022-09-28T08:00:29.833Z,1.20
2022-09-28T08:03:01.335Z,1.53
2022-09-28T08:05:32.277Z,1.40
2022-09-28T08:08:01.747Z,1.70
2022-09-28T08:10:29.707Z,1.40
2022-09-28T08:13:00.552Z,1.60
2022-09-28T08:15:35.102Z,2.47
2022-09-28T08:18:03.122Z,1.60
2022-09-28T08:20:51.685Z,1.33
2022-09-28T08:23:21.450Z,1.70
2022-09-28T08:25:49.901Z,1.27
2022-09-28T08:28:18.272Z,1.37
2022-09-28T08:30:46.356Z,0.90
2022-09-28T08:33:14.318Z,1.60
2022-09-28T08:35:42.312Z,1.40
2022-09-28T08:38:10.712Z,1.37
2022-09-28T08:40:45.930Z,1.10
2022-09-28T08:43:22.948Z,1.30
2022-09-28T08:45:50.944Z,1.77
2022-09-28T08:48:37.317Z,1.37
2022-09-28T08:51:07.320Z,1.10
2022-09-28T08:53:39.254Z,1.10
2022-09-28T08:56:12.058Z,0.93
2022-09-28T08:58:42.060Z,1.00
2022-09-28T09:01:11.795Z,1.27
2022-09-28T09:03:41.956Z,0.93
2022-09-28T09:06:18.372Z,0.80
2022-09-28T09:08:51.726Z,1.20
2022-09-28T09:11:29.354Z,0.73
2022-09-28T09:14:29.711Z,1.80
2022-09-28T09:17:01.058Z,0.80
2022-09-28T09:19:36.343Z,1.20
2022-09-28T09:22:11.351Z,1.00
2022-09-28T09:24:41.891Z,0.97
2022-09-28T09:27:15.652Z,0.90
2022-09-28T09:29:51.039Z,0.83
2022-09-28T09:32:27.288Z,0.83
2022-09-28T09:35:08.777Z,1.00
2022-09-28T09:37:54.151Z,1.47
2022-09-28T09:40:33.577Z,1.17
2022-09-28T09:43:08.370Z,0.77
2022-09-28T09:45:43.748Z,1.40
2022-09-28T09:48:13.862Z,1.10
2022-09-28T09:50:45.940Z,0.90
2022-09-28T09:53:17.276Z,0.80
2022-09-28T09:55:45.838Z,0.80
2022-09-28T09:58:16.896Z,0.80
2022-09-28T10:00:45.790Z,0.87
2022-09-28T10:03:18.914Z,0.87
2022-09-28T10:05:47.073Z,1.10
2022-09-28T10:08:16.822Z,1.00
2022-09-28T10:10:50.015Z,1.20
2022-09-28T10:13:19.327Z,1.00
2022-09-28T10:15:49.202Z,0.70
2022-09-28T10:18:17.842Z,1.00
2022-09-28T10:20:46.117Z,0.83
2022-09-28T10:23:17.163Z,1.50
2022-09-28T10:25:45.205Z,0.90
2022-09-28T10:28:15.561Z,0.73
2022-09-28T10:30:45.124Z,1.13
2022-09-28T10:33:28.587Z,0.90
2022-09-28T10:35:56.745Z,0.80
2022-09-28T10:38:24.899Z,1.20
2022-09-28T10:40:54.521Z,1.10
2022-09-28T10:43:23.933Z,0.90
2022-09-28T10:46:01.239Z,1.00
2022-09-28T10:48:29.267Z,0.80
2022-09-28T10:51:05.266Z,0.80
2022-09-28T10:53:33.298Z,0.70
2022-09-28T10:56:03.114Z,0.90
2022-09-28T10:58:38.394Z,0.97
2022-09-28T11:01:12.006Z,1.00
2022-09-28T11:03:49.820Z,1.70
2022-09-28T11:06:17.770Z,0.80
2022-09-28T11:08:46.398Z,0.90
2022-09-28T11:11:15.125Z,1.10
2022-09-28T11:13:45.060Z,0.80
2022-09-28T11:16:30.529Z,0.80
2022-09-28T11:18:59.169Z,0.90
2022-09-28T11:21:28.153Z,0.80
2022-09-28T11:24:02.572Z,1.00
2022-09-28T11:26:35.919Z,0.80
2022-09-28T11:29:05.279Z,1.17
2022-09-28T11:31:36.202Z,1.37
2022-09-28T11:34:06.633Z,0.93
2022-09-28T11:36:50.275Z,0.97
2022-09-28T11:39:20.357Z,0.60
2022-09-28T11:41:54.513Z,1.00
2022-09-28T11:44:40.480Z,0.90
2022-09-28T11:47:34.764Z,0.95
2022-09-28T11:50:04.306Z,0.82
2022-09-28T11:52:33.742Z,0.65
2022-09-28T11:55:03.333Z,1.08
2022-09-28T11:57:32.684Z,0.77
2022-09-28T12:00:01.814Z,0.90
2022-09-28T12:02:35.454Z,0.95
2022-09-28T12:05:18.361Z,1.08
2022-09-28T12:07:49.963Z,0.52
2022-09-28T12:10:19.699Z,0.82
2022-09-28T12:12:49.043Z,0.82
2022-09-28T12:15:19.774Z,0.75
2022-09-28T12:17:50.815Z,0.60
2022-09-28T12:20:22.277Z,0.60
2022-09-28T12:22:55.738Z,0.70
2022-09-28T12:25:24.111Z,1.17
2022-09-28T12:27:54.024Z,1.13
2022-09-28T12:30:22.551Z,0.90
2022-09-28T12:32:53.923Z,0.80
2022-09-28T12:35:28.840Z,1.00
2022-09-28T12:38:08.974Z,0.80
2022-09-28T12:40:43.290Z,0.60
2022-09-28T12:43:28.323Z,0.60
2022-09-28T12:46:12.615Z,0.90
2022-09-28T12:49:43.643Z,1.00
2022-09-28T12:51:49.831Z,1.07
2022-09-28T12:54:26.231Z,0.80
2022-09-28T12:57:00.419Z,0.90
2022-09-28T12:59:30.511Z,0.80
2022-09-28T13:02:22.948Z,0.70
2022-09-28T13:05:02.244Z,0.90
2022-09-28T13:07:32.354Z,0.80
2022-09-28T13:10:06.897Z,1.03
2022-09-28T13:12:41.558Z,0.83
2022-09-28T13:15:24.910Z,1.07
2022-09-28T13:17:56.961Z,1.97
2022-09-28T13:20:35.815Z,0.80
2022-09-28T13:23:11.681Z,0.70
2022-09-28T13:25:41.504Z,0.90
2022-09-28T13:28:10.676Z,0.90
2022-09-28T13:30:40.356Z,1.20
2022-09-28T13:33:08.812Z,1.10
2022-09-28T13:35:38.196Z,0.90
2022-09-28T13:38:30.530Z,1.23
2022-09-28T13:41:12.175Z,1.10
2022-09-28T13:43:48.064Z,1.00
2022-09-28T13:46:20.244Z,1.30
2022-09-28T13:48:50.758Z,1.10
2022-09-28T13:51:33.939Z,0.90
2022-09-28T13:54:11.190Z,0.80
2022-09-28T13:56:45.455Z,0.60
2022-09-28T13:59:17.784Z,0.80
2022-09-28T14:01:47.729Z,0.80
2022-09-28T14:04:19.038Z,1.30
2022-09-28T14:06:55.541Z,0.70
2022-09-28T14:09:42.466Z,0.87
2022-09-28T14:12:30.485Z,0.97
2022-09-28T14:14:58.506Z,0.90
2022-09-28T14:17:59.836Z,0.97
2022-09-28T14:20:28.207Z,1.10
2022-09-28T14:23:31.347Z,0.80
2022-09-28T14:26:16.117Z,0.70
2022-09-28T14:28:50.097Z,0.80
2022-09-28T14:31:22.655Z,1.00
2022-09-28T14:33:56.924Z,0.80
2022-09-28T14:36:47.476Z,0.70
2022-09-28T14:39:39.530Z,1.03
2022-09-28T14:42:12.827Z,1.20
2022-09-28T14:45:18.169Z,0.90
2022-09-28T14:47:46.339Z,0.80
2022-09-28T14:50:23.522Z,0.93
2022-09-28T14:52:52.400Z,0.80
2022-09-28T14:55:25.550Z,0.90
2022-09-28T14:57:54.282Z,0.80
2022-09-28T15:00:23.418Z,0.90
2022-09-28T15:02:52.746Z,0.80
2022-09-28T15:05:24.779Z,1.10
2022-09-28T15:07:53.450Z,0.90
2022-09-28T15:10:28.307Z,1.10
2022-09-28T15:12:57.203Z,0.70
2022-09-28T15:15:31.777Z,1.43
2022-09-28T15:18:05.763Z,1.03
2022-09-28T15:20:35.444Z,0.83
2022-09-28T15:23:03.403Z,0.80
2022-09-28T15:25:33.998Z,1.00
2022-09-28T15:28:04.678Z,1.40
2022-09-28T15:30:33.208Z,1.60
2022-09-28T15:33:15.734Z,1.60
2022-09-28T15:35:43.676Z,2.60
2022-09-28T15:38:11.951Z,2.13
2022-09-28T15:40:41.371Z,1.80
2022-09-28T15:43:24.223Z,2.43
2022-09-28T15:46:02.952Z,2.30
2022-09-28T15:48:32.029Z,2.57
2022-09-28T15:51:02.578Z,2.00
2022-09-28T15:53:31.382Z,1.60
2022-09-28T15:56:09.693Z,1.97
2022-09-28T15:58:38.477Z,2.53
2022-09-28T16:01:29.417Z,1.50
2022-09-28T16:03:57.394Z,1.50
2022-09-28T16:06:25.427Z,1.60
2022-09-28T16:08:53.866Z,2.07
2022-09-28T16:11:26.290Z,2.37
2022-09-28T16:14:01.658Z,1.93
2022-09-28T16:16:31.274Z,2.20
2022-09-28T16:19:00.653Z,1.63
2022-09-28T16:21:44.497Z,2.30
2022-09-28T16:24:20.980Z,1.87
2022-09-28T16:26:50.387Z,3.63
2022-09-28T16:29:29.081Z,2.80
2022-09-28T16:31:57.050Z,2.33
2022-09-28T16:34:25.862Z,2.87
2022-09-28T16:36:53.821Z,2.40
2022-09-28T16:39:21.980Z,2.90
2022-09-28T16:41:53.889Z,2.30
2022-09-28T16:44:24.641Z,2.70
2022-09-28T16:46:53.947Z,1.87
2022-09-28T16:49:21.881Z,1.60
2022-09-28T16:51:49.919Z,2.33
2022-09-28T16:54:36.583Z,2.63
2022-09-28T16:57:06.709Z,2.90
2022-09-28T16:59:34.640Z,1.83
2022-09-28T17:02:02.642Z,1.30
2022-09-28T17:04:30.615Z,1.93
2022-09-28T17:06:58.551Z,2.00
2022-09-28T17:09:26.721Z,2.17
2022-09-28T17:11:56.188Z,3.13
2022-09-28T17:14:27.151Z,2.20
2022-09-28T17:17:08.157Z,2.50
2022-09-28T17:19:43.198Z,2.20
2022-09-28T17:22:11.144Z,2.30
2022-09-28T17:24:39.967Z,1.70
2022-09-28T17:27:08.240Z,1.90
2022-09-28T17:29:37.603Z,1.93
2022-09-28T17:32:08.375Z,1.83
2022-09-28T17:34:36.376Z,1.50
2022-09-28T17:37:04.321Z,1.83
2022-09-28T17:39:32.227Z,1.73
2022-09-28T17:42:00.222Z,1.37
2022-09-28T17:44:28.418Z,2.30
2022-09-28T17:46:57.737Z,1.90
2022-09-28T17:49:25.748Z,1.43
2022-09-28T17:51:54.253Z,2.07
2022-09-28T17:54:22.595Z,1.70
2022-09-28T17:56:50.808Z,1.93
2022-09-28T17:59:19.027Z,1.90
2022-09-28T18:01:48.259Z,2.10
2022-09-28T18:04:39.804Z,2.00
2022-09-28T18:07:05.766Z,2.93
2022-09-28T18:09:33.694Z,2.87
2022-09-28T18:12:02.267Z,1.90
2022-09-28T18:14:30.212Z,1.80
2022-09-28T18:16:58.179Z,1.87
2022-09-28T18:19:31.711Z,1.60
2022-09-28T18:22:01.428Z,1.57
2022-09-28T18:24:29.592Z,1.33
2022-09-28T18:26:57.566Z,1.40
2022-09-28T18:29:26.708Z,2.50
2022-09-28T18:31:56.034Z,1.73
2022-09-28T18:34:24.025Z,1.33
2022-09-28T18:36:53.499Z,1.50
2022-09-28T18:39:21.803Z,1.50
2022-09-28T18:41:49.752Z,1.63
2022-09-28T18:44:17.711Z,2.23
2022-09-28T18:46:45.726Z,2.50
2022-09-28T18:49:13.672Z,2.50
2022-09-28T18:51:41.686Z,1.97
2022-09-28T18:54:11.018Z,3.07
2022-09-28T18:56:38.965Z,2.77
2022-09-28T18:59:11.240Z,2.60
2022-09-28T19:01:41.681Z,2.07
2022-09-28T19:04:10.458Z,2.60
2022-09-28T19:06:40.709Z,1.97
2022-09-28T19:09:10.340Z,2.27
2022-09-28T19:11:38.310Z,1.90
2022-09-28T19:14:06.285Z,2.27
2022-09-28T19:16:34.774Z,2.70
2022-09-28T19:19:03.411Z,2.27
2022-09-28T19:21:31.505Z,2.40
2022-09-28T19:24:01.434Z,1.90
2022-09-28T19:26:30.863Z,2.53
2022-09-28T19:28:59.009Z,2.17
2022-09-28T19:31:27.166Z,2.33
2022-09-28T19:33:55.127Z,2.00
2022-09-28T19:36:24.263Z,1.73
2022-09-28T19:38:52.778Z,1.90
2022-09-28T19:41:39.099Z,1.63
2022-09-28T19:44:09.862Z,0.83
2022-09-28T19:46:38.868Z,1.33
2022-09-28T19:49:10.373Z,1.70
2022-09-28T19:51:46.915Z,1.63
2022-09-28T19:54:30.204Z,1.00
2022-09-28T19:57:01.378Z,2.23
2022-09-28T19:59:30.766Z,1.20
2022-09-28T20:02:01.351Z,1.60
2022-09-28T20:04:29.591Z,1.73
2022-09-28T20:06:57.527Z,1.37
2022-09-28T20:09:25.470Z,1.57
2022-09-28T20:11:53.406Z,1.47
2022-09-28T20:14:23.426Z,2.10
2022-09-28T20:16:55.227Z,1.10
2022-09-28T20:19:23.475Z,1.60
2022-09-28T20:21:51.493Z,1.27
2022-09-28T20:24:19.451Z,1.23
2022-09-28T20:26:49.615Z,1.13
2022-09-28T20:29:17.640Z,1.40
2022-09-28T20:31:45.709Z,1.30
2022-09-28T20:34:15.079Z,1.47
2022-09-28T20:36:44.716Z,1.73
2022-09-28T20:39:12.912Z,1.20
2022-09-28T20:41:41.203Z,1.37
2022-09-28T20:44:09.892Z,2.03
2022-09-28T20:46:38.116Z,1.40
2022-09-28T20:49:07.215Z,1.70
2022-09-28T20:51:36.506Z,1.93
2022-09-28T20:54:04.959Z,1.83
2022-09-28T20:56:37.621Z,1.63
2022-09-28T20:59:05.775Z,1.13
2022-09-28T21:01:33.892Z,1.33
2022-09-28T21:04:02.532Z,1.50
2022-09-28T21:06:31.473Z,2.00
2022-09-28T21:09:00.881Z,1.00
2022-09-28T21:11:29.562Z,1.43
2022-09-28T21:13:58.940Z,1.83
2022-09-28T21:16:27.136Z,1.27
2022-09-28T21:18:55.169Z,1.40
2022-09-28T21:21:23.426Z,1.17
2022-09-28T21:23:53.353Z,1.90
2022-09-28T21:26:25.945Z,1.70
2022-09-28T21:28:54.149Z,1.30
2022-09-28T21:31:27.535Z,1.90
2022-09-28T21:33:56.672Z,2.60
2022-09-28T21:36:24.647Z,3.00
2022-09-28T21:38:53.536Z,2.30
2022-09-28T21:41:22.856Z,2.00
2022-09-28T21:43:50.893Z,2.10
2022-09-28T21:46:18.952Z,2.00
2022-09-28T21:48:46.917Z,1.97
2022-09-28T21:51:15.230Z,2.10
2022-09-28T21:53:43.741Z,1.70
2022-09-28T21:56:13.067Z,2.33
2022-09-28T21:58:42.356Z,2.47
2022-09-28T22:01:12.204Z,2.10
2022-09-28T22:03:40.217Z,1.73
2022-09-28T22:06:08.593Z,1.80
2022-09-28T22:08:36.736Z,2.20
2022-09-28T22:11:06.558Z,1.77
2022-09-28T22:13:35.728Z,1.77
2022-09-28T22:16:05.184Z,1.77
2022-09-28T22:18:34.033Z,2.00
2022-09-28T22:21:02.085Z,1.80
2022-09-28T22:23:30.119Z,1.50
2022-09-28T22:26:01.557Z,2.10
2022-09-28T22:28:29.636Z,2.17
2022-09-28T22:30:57.693Z,1.90
2022-09-28T22:33:27.171Z,2.00
2022-09-28T22:35:55.515Z,2.37
2022-09-28T22:38:24.943Z,1.90
2022-09-28T22:40:54.261Z,1.30
2022-09-28T22:43:23.442Z,2.33
2022-09-28T22:45:51.406Z,1.37
2022-09-28T22:48:19.363Z,1.77
2022-09-28T22:50:51.804Z,1.67
2022-09-28T22:53:19.928Z,1.67
2022-09-28T22:55:47.888Z,1.23
2022-09-28T22:58:15.856Z,1.37
2022-09-28T23:00:44.537Z,1.57
2022-09-28T23:03:12.583Z,1.20
2022-09-28T23:05:40.569Z,1.37
2022-09-28T23:08:10.604Z,1.60
2022-09-28T23:10:38.617Z,1.50
2022-09-28T23:13:06.544Z,1.20
2022-09-28T23:15:34.486Z,1.00
2022-09-28T23:18:02.465Z,1.40
2022-09-28T23:20:30.408Z,1.73
2022-09-28T23:22:58.409Z,1.37
2022-09-28T23:25:29.046Z,1.17
2022-09-28T23:27:57.005Z,1.30
2022-09-28T23:30:25.710Z,1.60
2022-09-28T23:32:54.248Z,1.33
2022-09-28T23:35:22.208Z,1.30
2022-09-28T23:37:53.184Z,2.03
2022-09-28T23:40:21.206Z,1.70
2022-09-28T23:42:50.622Z,1.53
2022-09-28T23:45:18.558Z,1.20
2022-09-28T23:47:46.567Z,1.10
2022-09-28T23:50:14.551Z,1.20
2022-09-28T23:52:42.513Z,1.73
2022-09-28T23:55:10.687Z,1.10
2022-09-28T23:57:41.110Z,1.33
